Paamiut

KL  EN  DA
ASIAQ
Weather Now GREENLAND SURVEY
Updated [WGT/WGST] Temperature [°C] Wind [m/s] Air pressure [hPa] Relative humidity [%] Precipitation [mm]
Present Wind chill Speed Max
21.01 19:00-10,1-17,14,5 ⇙6,41007n/an/a
21.01 18:00-12,9-18,42,6 ⇐3,31007n/an/a
21.01 17:00-11,3-15,41,9 ⇙2,81007n/an/a
21.01 16:00-12,1-17,62,7 ⇙3,21007n/an/a
21.01 15:00-9,80,00,2 ⇓1,21008n/an/a
21.01 14:00-7,7-10,71,6 ⇓2,51007n/an/a
21.01 13:00-8,20,01,0 ⇙1,61007n/an/a
21.01 12:00-7,90,01,3 ⇓2,21007n/an/a
21.01 11:00-10,2-15,52,8 ⇐3,71007n/an/a
21.01 10:00-9,7-14,12,2 ⇐2,91007n/an/a
21.01 09:00-11,1-16,42,7 ⇐3,11007n/an/a
21.01 08:00-10,8-16,02,6 ⇐2,91006n/an/a
21.01 07:00-10,6-14,11,6 ⇙1,81005n/an/a
21.01 06:00-8,8-12,01,6 ⇙2,01005n/an/a
21.01 05:00-10,00,01,2 ⇙1,61005n/an/a
21.01 04:00-9,4-12,71,6 ⇙2,01004n/an/a
21.01 03:00-10,7-14,61,8 ⇙2,41003n/an/a
21.01 02:00-9,90,00,5 ⇓1,11003n/an/a
21.01 01:00-10,3-14,31,9 ⇙2,31002n/an/a
21.01 00:00-10,6-15,02,1 ⇐2,61002n/an/a
20.01 23:00-10,2-13,21,4 ⇙1,71002n/an/a
20.01 22:00-9,60,00,7 ⇓1,41001n/an/a
20.01 21:00-9,9-14,72,5 ⇙3,31001n/an/a
20.01 20:00-7,8-13,33,4 ⇓6,11000n/an/a
20.01 19:00-7,2-14,66,1 ⇘8,9999n/an/a
Position: (62.01666667,-49.666667)

[Back]